LFPM 232030Z AUTO 26005KT CAVOK 09/06 Q1029

Bienvenue dans notre aéroclub

L'aéro-club Aigle de St-Maur se trouve sur l'aérodrome de Lognes-Emerainville LFPL.
Situé en Seine-et-Marne (77), le terrain est aux portes de Paris, à une vingtaine de kilomètres par l'autoroute A4.
Rejoignez-nous et apprenez à piloter un avion dans une ambiance sympathique.

DR400 2+2
F-GAVN

F-GAVN Small
DR400 Dauphin
F-GAHP

F-GAHP Small
DR400 Cadet
F-GGJG

F-GGJG Small
DR400-180
F-GDED

F-GDED Small
DR400 Régent
F-GGJV

F-GGJV Small
PA28 Archer II
F-GHJT

F-GHJT Small
Beechcraft Bonanza
F-BRIZ

F-BRIZ Small
DR400-120
F-BVMQ

F-BVMQ Small
Jodel D112
F-BHCK

F-BHCK Small

Les informations et plus particulièrement les tarifs contenus dans ce site, sont sujets à modification sans préavis.
Pour de plus amples informations, n'hésitez pas à nous téléphoner.

Note page facebook https://www.facebook.com/A%C3%A9roclub-Aigle-de-Saint-Maur-1375213289466934/

 

Visites

Lognes LFPL

Tour de contrôle LFPL